createdAt,value
2019-01-24T00:00:50.782Z,-2.86
2019-01-24T00:10:50.748Z,-2.86
2019-01-24T00:20:53.080Z,-2.90
2019-01-24T00:30:50.779Z,-2.89
2019-01-24T00:40:50.717Z,-2.88
2019-01-24T00:50:50.738Z,-2.86
2019-01-24T01:00:50.776Z,-2.93
2019-01-24T01:10:50.683Z,-2.99
2019-01-24T01:20:50.778Z,-2.98
2019-01-24T01:30:51.487Z,-2.99
2019-01-24T01:40:50.812Z,-2.97
2019-01-24T01:50:50.715Z,-2.96
2019-01-24T02:00:50.879Z,-2.95
2019-01-24T02:10:50.665Z,-3.03
2019-01-24T02:20:51.484Z,-3.08
2019-01-24T02:30:50.655Z,-3.15
2019-01-24T02:40:51.064Z,-3.15
2019-01-24T02:50:50.684Z,-3.12
2019-01-24T03:00:50.740Z,-3.15
2019-01-24T03:10:50.775Z,-3.22
2019-01-24T03:20:50.622Z,-3.23
2019-01-24T03:30:57.917Z,-3.22
2019-01-24T03:40:50.663Z,-3.24
2019-01-24T03:50:50.682Z,-3.27
2019-01-24T04:00:50.586Z,-3.34
2019-01-24T04:10:50.700Z,-3.37
2019-01-24T04:20:50.705Z,-3.44
2019-01-24T04:30:50.649Z,-3.49
2019-01-24T04:40:50.654Z,-3.53
2019-01-24T04:50:50.634Z,-3.54
2019-01-24T05:00:50.797Z,-3.54
2019-01-24T05:10:50.546Z,-3.59
2019-01-24T05:20:50.609Z,-3.58
2019-01-24T05:30:50.610Z,-3.57
2019-01-24T05:40:50.673Z,-3.58
2019-01-24T05:50:50.683Z,-3.65
2019-01-24T06:00:50.650Z,-3.61
2019-01-24T06:10:50.697Z,-3.63
2019-01-24T06:20:50.751Z,-3.59
2019-01-24T06:30:50.698Z,-3.57
2019-01-24T06:40:50.801Z,-3.65
2019-01-24T06:50:50.746Z,-3.61
2019-01-24T07:00:50.739Z,-3.56
2019-01-24T07:10:50.639Z,-3.60
2019-01-24T07:20:50.881Z,-3.57
2019-01-24T07:30:50.605Z,-3.60
2019-01-24T07:40:50.814Z,-3.65
2019-01-24T07:50:51.585Z,-3.79
2019-01-24T08:00:50.922Z,-3.72
2019-01-24T08:10:50.787Z,-3.63
2019-01-24T08:20:50.716Z,-3.59
2019-01-24T08:30:50.760Z,-3.54
2019-01-24T08:40:50.793Z,-3.48
2019-01-24T08:50:50.672Z,-3.40
2019-01-24T09:00:50.586Z,-3.33
2019-01-24T09:10:50.890Z,-3.36
2019-01-24T09:20:50.660Z,-3.20
2019-01-24T09:30:50.859Z,-3.08
2019-01-24T09:40:51.823Z,-2.75
2019-01-24T09:50:50.683Z,-2.78
2019-01-24T10:00:50.659Z,-2.77
2019-01-24T10:10:50.744Z,-2.93
2019-01-24T10:20:50.616Z,-3.18
2019-01-24T10:30:50.689Z,-2.93
2019-01-24T10:40:50.729Z,-2.81
2019-01-24T10:50:50.559Z,-2.68
2019-01-24T11:00:50.714Z,-2.47
2019-01-24T11:10:50.702Z,-2.44
2019-01-24T11:20:50.568Z,-2.27
2019-01-24T11:30:50.737Z,-2.75
2019-01-24T11:40:50.579Z,-2.68
2019-01-24T11:50:51.201Z,-2.20
2019-01-24T12:00:50.622Z,-2.15
2019-01-24T12:10:50.696Z,-1.79
2019-01-24T12:20:50.675Z,-1.30
2019-01-24T12:30:50.591Z,-0.88
2019-01-24T12:40:50.656Z,-1.16
2019-01-24T12:50:50.608Z,-1.50
2019-01-24T13:00:50.577Z,-1.71
2019-01-24T13:10:50.650Z,-1.81
2019-01-24T13:20:50.635Z,-1.66
2019-01-24T13:30:50.561Z,-1.80
2019-01-24T13:40:50.567Z,-1.66
2019-01-24T13:50:50.617Z,-1.52
2019-01-24T14:00:50.612Z,-1.62
2019-01-24T14:10:50.662Z,-1.72
2019-01-24T14:20:50.639Z,-1.81
2019-01-24T14:30:50.629Z,-1.94
2019-01-24T14:40:51.502Z,-1.97
2019-01-24T14:50:50.734Z,-1.83
2019-01-24T15:00:50.560Z,-1.88
2019-01-24T15:10:50.783Z,-2.03
2019-01-24T15:20:50.504Z,-2.03
2019-01-24T15:30:50.666Z,-2.04
2019-01-24T15:40:50.617Z,-2.21
2019-01-24T15:50:50.611Z,-2.30
2019-01-24T16:00:50.559Z,-2.37
2019-01-24T16:10:50.487Z,-2.46
2019-01-24T16:20:50.564Z,-2.50
2019-01-24T16:30:51.025Z,-2.42
2019-01-24T16:40:50.640Z,-2.49
2019-01-24T16:50:50.592Z,-2.48
2019-01-24T17:00:50.501Z,-2.36
2019-01-24T17:10:50.510Z,-2.32
2019-01-24T17:20:50.489Z,-2.29
2019-01-24T17:30:50.390Z,-2.20
2019-01-24T17:40:50.461Z,-2.20
2019-01-24T17:50:50.473Z,-2.21
2019-01-24T18:00:50.486Z,-2.23
2019-01-24T18:10:50.447Z,-2.26
2019-01-24T18:20:50.460Z,-2.19
2019-01-24T18:30:50.524Z,-2.14
2019-01-24T18:40:50.728Z,-2.02
2019-01-24T18:50:50.503Z,-1.91
2019-01-24T19:00:50.468Z,-1.88
2019-01-24T19:10:50.412Z,-1.83
2019-01-24T19:20:50.535Z,-1.87
2019-01-24T19:30:50.471Z,-1.83
2019-01-24T19:40:50.307Z,-1.81
2019-01-24T19:50:50.359Z,-1.77
2019-01-24T20:00:50.446Z,-1.68
2019-01-24T20:10:50.388Z,-1.68
2019-01-24T20:20:50.449Z,-1.67
2019-01-24T20:30:50.404Z,-1.61
2019-01-24T20:40:50.431Z,-1.58
2019-01-24T20:50:50.453Z,-1.53
2019-01-24T21:00:50.444Z,-1.45
2019-01-24T21:10:50.343Z,-1.34
2019-01-24T21:20:50.411Z,-1.18
2019-01-24T21:30:50.389Z,-1.22
2019-01-24T21:40:50.395Z,-1.19
2019-01-24T21:50:50.917Z,-1.06
2019-01-24T22:00:50.355Z,-0.97
2019-01-24T22:10:50.432Z,-0.93
2019-01-24T22:20:55.641Z,-0.87
2019-01-24T22:30:50.406Z,-0.82
2019-01-24T22:40:51.152Z,-0.78
2019-01-24T22:50:50.341Z,-0.74
2019-01-24T23:00:50.352Z,-0.72
2019-01-24T23:10:50.340Z,-0.72
2019-01-24T23:20:50.411Z,-0.76
2019-01-24T23:30:50.391Z,-0.72
2019-01-24T23:40:50.517Z,-0.70
2019-01-24T23:50:50.320Z,-0.68
